Time;durP1;ratioP1;P1;durP2;ratioP2;P2;SDS_P1;SDS_P2;PMS_P1;PMS_P2;Temp;Humidity;BMP_temperature;BMP_pressure;BME280_temperature;BME280_humidity;BME280_pressure;Samples;Min_cycle;Max_cycle;Signal;HPM_P1;HPM_P2
2022/06/24 00:00:12;;;;;;;5.17;2.47;;;21.90;96.70;;;;;;5031438;28;20540;-77
2022/06/24 00:02:40;;;;;;;3.15;2.33;;;21.90;96.70;;;;;;5038371;28;20067;-74
2022/06/24 00:05:10;;;;;;;3.05;2.20;;;21.90;96.70;;;;;;5016138;28;20497;-74
2022/06/24 00:07:50;;;;;;;3.00;2.25;;;21.80;96.60;;;;;;5030634;28;20033;-74
2022/06/24 00:10:29;;;;;;;3.10;2.70;;;21.80;96.60;;;;;;5028215;28;20501;-74
2022/06/24 00:12:56;;;;;;;2.55;2.20;;;21.80;96.70;;;;;;5032862;28;20367;-75
2022/06/24 00:15:36;;;;;;;5.20;2.10;;;21.80;96.70;;;;;;5030161;28;20037;-74
2022/06/24 00:18:19;;;;;;;3.35;2.63;;;21.80;96.60;;;;;;5028006;28;20468;-78
2022/06/24 00:20:48;;;;;;;2.83;2.10;;;21.80;96.60;;;;;;5035378;28;20095;-75
2022/06/24 00:23:22;;;;;;;3.85;2.40;;;21.70;96.60;;;;;;5037095;28;20513;-74
2022/06/24 00:25:49;;;;;;;5.57;2.38;;;21.70;96.90;;;;;;5032441;28;20037;-74
2022/06/24 00:28:16;;;;;;;3.30;2.20;;;21.70;96.60;;;;;;5034640;28;20045;-74
2022/06/24 00:30:51;;;;;;;2.20;2.00;;;21.70;96.60;;;;;;5032139;28;20025;-77
2022/06/24 00:33:22;;;;;;;2.60;2.28;;;21.70;96.60;;;;;;5035842;28;20038;-74
2022/06/24 00:35:51;;;;;;;;;;;21.60;96.60;;;;;;5037846;28;20057;-73
2022/06/24 00:38:27;;;;;;;2.90;2.40;;;21.60;96.70;;;;;;5038611;28;19952;-73
2022/06/24 00:40:57;;;;;;;4.25;2.42;;;21.60;96.70;;;;;;5030732;28;20398;-73
2022/06/24 00:43:43;;;;;;;3.10;2.35;;;21.50;96.60;;;;;;5036853;28;20116;-73
2022/06/24 00:46:27;;;;;;;2.83;2.30;;;21.50;96.60;;;;;;5031182;28;20478;-77
2022/06/24 00:48:57;;;;;;;2.80;2.30;;;21.50;96.60;;;;;;5039508;28;20041;-74
2022/06/24 00:51:30;;;;;;;3.53;2.60;;;21.50;96.60;;;;;;5041308;28;20028;-74
2022/06/24 00:53:58;;;;;;;3.83;2.40;;;21.50;96.50;;;;;;5045959;28;20025;-76
2022/06/24 00:56:28;;;;;;;3.20;2.65;;;21.40;96.40;;;;;;5039539;28;20025;-73
2022/06/24 00:58:59;;;;;;;2.53;2.25;;;21.40;96.40;;;;;;5042241;28;20041;-74
2022/06/24 01:01:33;;;;;;;2.92;2.30;;;21.40;96.40;;;;;;5044198;28;20025;-73
2022/06/24 01:04:01;;;;;;;2.40;2.13;;;21.30;96.40;;;;;;5037566;28;20022;-74
2022/06/24 01:06:29;;;;;;;3.58;2.30;;;21.40;96.50;;;;;;5016788;28;20058;-73
2022/06/24 01:08:57;;;;;;;2.40;2.00;;;21.40;96.40;;;;;;5034585;28;20036;-78
2022/06/24 01:11:32;;;;;;;2.38;2.17;;;21.40;96.40;;;;;;5030829;28;20033;-73
2022/06/24 01:13:58;;;;;;;2.70;2.22;;;21.40;96.30;;;;;;5036207;28;20029;-74
2022/06/24 01:16:25;;;;;;;2.40;2.20;;;21.40;96.30;;;;;;5029144;28;20025;-74
2022/06/24 01:18:56;;;;;;;3.65;2.63;;;21.30;96.30;;;;;;5031169;28;20592;-74
2022/06/24 01:21:34;;;;;;;5.30;2.67;;;21.20;96.20;;;;;;5031983;28;20025;-77
2022/06/24 01:24:17;;;;;;;3.08;2.25;;;21.30;96.20;;;;;;5034057;28;20032;-77
2022/06/24 01:26:56;;;;;;;2.58;2.38;;;21.30;96.10;;;;;;5033024;28;20607;-74
2022/06/24 01:29:23;;;;;;;2.50;2.15;;;21.20;96.00;;;;;;5032942;28;20029;-76
2022/06/24 01:31:52;;;;;;;4.20;2.50;;;21.20;96.00;;;;;;5028794;28;20521;-74
2022/06/24 01:34:22;;;;;;;2.60;2.35;;;21.20;95.80;;;;;;5032435;28;20053;-73
2022/06/24 01:36:48;;;;;;;4.05;2.83;;;21.20;95.70;;;;;;5038030;28;20025;-73
2022/06/24 01:39:16;;;;;;;4.72;2.10;;;21.30;95.60;;;;;;5033815;28;20032;-74
2022/06/24 01:41:42;;;;;;;3.65;2.70;;;21.30;95.60;;;;;;5027317;28;20497;-75
2022/06/24 01:44:13;;;;;;;3.05;2.67;;;21.20;95.40;;;;;;5024875;28;20043;-74
2022/06/24 01:46:39;;;;;;;4.78;2.55;;;21.20;95.40;;;;;;5034646;28;20465;-74
2022/06/24 01:49:05;;;;;;;3.72;2.72;;;21.20;95.40;;;;;;5035419;28;20045;-75
2022/06/24 01:51:34;;;;;;;3.85;2.40;;;21.20;95.40;;;;;;5033807;28;20033;-77
2022/06/24 01:54:00;;;;;;;3.28;2.70;;;21.10;95.40;;;;;;5032646;28;20772;-74
2022/06/24 01:56:26;;;;;;;3.25;2.72;;;21.20;95.30;;;;;;5036550;28;20028;-74
2022/06/24 01:58:52;;;;;;;3.78;2.42;;;21.10;95.20;;;;;;5030687;28;20590;-74
2022/06/24 02:01:18;;;;;;;3.72;2.70;;;21.10;95.20;;;;;;5029610;28;20041;-73
2022/06/24 02:03:44;;;;;;;3.00;2.20;;;21.10;95.20;;;;;;5036929;28;20033;-74
2022/06/24 02:06:12;;;;;;;4.18;2.83;;;21.20;95.20;;;;;;5032681;28;20108;-76
2022/06/24 02:08:38;;;;;;;4.70;2.50;;;21.10;95.10;;;;;;5037549;28;20033;-74
2022/06/24 02:13:50;;;;;;;4.72;2.20;;;21.10;95.20;;;;;;5036764;28;20051;-76
2022/06/24 02:16:18;;;;;;;3.13;2.25;;;21.10;95.20;;;;;;5029074;28;20024;-74
2022/06/24 02:18:45;;;;;;;3.25;2.67;;;21.10;95.30;;;;;;5035281;28;20032;-72
2022/06/24 02:21:11;;;;;;;5.18;2.78;;;21.10;95.40;;;;;;5030502;28;20096;-75
2022/06/24 02:23:40;;;;;;;3.85;2.80;;;21.00;95.60;;;;;;5036515;28;20393;-75
2022/06/24 02:26:06;;;;;;;4.00;2.55;;;21.00;95.70;;;;;;5029752;28;20066;-73
2022/06/24 02:28:34;;;;;;;3.28;2.40;;;21.00;95.60;;;;;;5034053;28;20072;-73
2022/06/24 02:31:02;;;;;;;3.97;2.40;;;21.00;95.80;;;;;;5035425;28;20459;-73
2022/06/24 02:33:28;;;;;;;5.28;2.88;;;21.00;95.70;;;;;;5036202;28;20021;-75
2022/06/24 02:35:54;;;;;;;2.72;2.50;;;21.00;95.80;;;;;;5034157;28;20031;-78
2022/06/24 02:38:21;;;;;;;2.75;2.50;;;20.90;96.00;;;;;;5032868;28;20021;-73
2022/06/24 02:40:48;;;;;;;3.45;2.45;;;20.80;96.00;;;;;;5011480;28;20462;-75
2022/06/24 02:43:18;;;;;;;4.32;2.42;;;20.80;96.30;;;;;;5028699;28;20022;-73
2022/06/24 02:45:49;;;;;;;4.97;2.50;;;20.80;96.40;;;;;;5027141;28;20033;-75
2022/06/24 02:48:17;;;;;;;4.00;2.60;;;20.70;96.40;;;;;;5034107;28;20040;-75
2022/06/24 02:50:46;;;;;;;3.47;2.58;;;20.70;96.50;;;;;;5016303;28;20450;-75
2022/06/24 02:53:14;;;;;;;3.90;2.42;;;20.60;96.60;;;;;;5034264;28;20087;-73
2022/06/24 02:55:41;;;;;;;3.13;2.45;;;20.60;96.70;;;;;;5033345;28;20502;-73
2022/06/24 02:58:08;;;;;;;3.47;2.40;;;20.60;96.70;;;;;;5033991;28;20092;-73
2022/06/24 03:00:34;;;;;;;3.15;2.50;;;20.50;96.80;;;;;;5034447;28;20072;-74
2022/06/24 03:03:01;;;;;;;3.60;2.60;;;20.50;96.80;;;;;;5030206;28;20098;-76
2022/06/24 03:05:27;;;;;;;3.33;2.60;;;20.50;96.90;;;;;;5027075;28;20036;-73
2022/06/24 03:07:54;;;;;;;3.03;2.50;;;20.50;96.90;;;;;;5033577;28;20033;-75
2022/06/24 03:10:21;;;;;;;3.53;2.85;;;20.50;97.00;;;;;;5028534;28;20088;-75
2022/06/24 03:12:46;;;;;;;4.55;2.75;;;20.40;96.90;;;;;;5033816;28;20029;-75
2022/06/24 03:15:13;;;;;;;4.72;2.80;;;20.40;97.00;;;;;;5012827;28;20037;-74
2022/06/24 03:17:39;;;;;;;6.03;3.28;;;20.50;97.00;;;;;;5032391;28;20497;-74
2022/06/24 03:20:06;;;;;;;2.72;2.53;;;20.50;97.10;;;;;;5031323;28;20107;-77
2022/06/24 03:22:32;;;;;;;4.28;2.88;;;20.50;97.30;;;;;;5031949;28;20033;-73
2022/06/24 03:24:59;;;;;;;5.05;2.80;;;20.50;97.10;;;;;;5033496;28;21204;-73
2022/06/24 03:27:25;;;;;;;3.28;2.63;;;20.40;96.90;;;;;;5030424;28;20147;-73
2022/06/24 03:29:51;;;;;;;4.65;2.55;;;20.40;97.10;;;;;;5030962;28;20033;-73
2022/06/24 03:32:17;;;;;;;5.63;3.00;;;20.40;97.10;;;;;;5032415;28;20091;-76
2022/06/24 03:34:43;;;;;;;3.75;2.40;;;20.40;97.10;;;;;;5031160;28;20044;-73
2022/06/24 03:37:10;;;;;;;4.57;2.75;;;20.40;97.20;;;;;;5036551;28;20556;-73
2022/06/24 03:39:37;;;;;;;3.60;2.40;;;20.40;97.20;;;;;;5028122;28;20036;-74
2022/06/24 03:42:03;;;;;;;4.45;2.90;;;20.40;97.10;;;;;;5030449;28;20110;-75
2022/06/24 03:44:29;;;;;;;4.28;2.58;;;20.40;97.10;;;;;;5029457;28;20032;-74
2022/06/24 03:46:55;;;;;;;4.00;2.60;;;20.40;97.30;;;;;;5032426;28;20071;-73
2022/06/24 03:49:21;;;;;;;3.47;3.00;;;20.40;97.10;;;;;;5028643;28;20058;-76
2022/06/24 03:51:47;;;;;;;2.95;2.55;;;20.40;97.00;;;;;;5032605;28;20040;-75
2022/06/24 03:54:13;;;;;;;4.00;3.25;;;20.40;97.00;;;;;;5037691;28;20040;-77
2022/06/24 03:56:39;;;;;;;3.53;2.50;;;20.40;97.00;;;;;;5034560;28;20439;-74
2022/06/24 03:59:04;;;;;;;3.50;2.20;;;20.50;97.10;;;;;;5037145;28;20021;-73
2022/06/24 04:01:31;;;;;;;2.50;2.30;;;20.40;97.00;;;;;;5038690;28;20033;-73
2022/06/24 04:03:57;;;;;;;5.25;2.58;;;20.50;97.10;;;;;;5028943;28;20063;-75
2022/06/24 04:06:23;;;;;;;5.15;2.60;;;20.50;96.90;;;;;;5035108;28;20153;-73
2022/06/24 04:08:48;;;;;;;3.63;2.88;;;20.50;96.80;;;;;;5036513;28;20098;-72
2022/06/24 04:11:16;;;;;;;2.92;2.60;;;20.50;96.80;;;;;;5033790;28;20029;-75
2022/06/24 04:13:43;;;;;;;3.10;2.80;;;20.50;96.80;;;;;;5031955;28;20516;-74
2022/06/24 04:16:10;;;;;;;3.70;2.33;;;20.50;96.90;;;;;;5035026;28;20041;-74
2022/06/24 04:18:36;;;;;;;3.25;2.35;;;20.50;97.00;;;;;;5035010;28;20108;-76
2022/06/24 04:21:02;;;;;;;2.72;2.40;;;20.50;96.90;;;;;;5035227;28;20107;-77
2022/06/24 04:23:29;;;;;;;3.15;2.20;;;20.50;97.00;;;;;;5027864;28;20026;-77
2022/06/24 04:25:54;;;;;;;5.32;2.90;;;20.50;96.80;;;;;;5038796;28;20025;-80
2022/06/24 04:28:20;;;;;;;4.13;2.70;;;20.60;96.80;;;;;;5032787;28;20512;-73
2022/06/24 04:30:46;;;;;;;3.67;2.47;;;20.60;96.70;;;;;;5035396;28;20113;-74
2022/06/24 04:33:12;;;;;;;4.00;2.80;;;20.60;96.60;;;;;;5036694;28;20028;-74
2022/06/24 04:35:40;;;;;;;3.47;2.38;;;20.70;96.60;;;;;;5031571;28;20112;-75
2022/06/24 04:38:05;;;;;;;4.18;2.70;;;20.60;96.80;;;;;;5037752;28;20025;-76
2022/06/24 04:40:31;;;;;;;5.07;3.10;;;20.70;96.70;;;;;;5035569;28;20131;-75
2022/06/24 04:42:57;;;;;;;3.10;2.80;;;20.70;96.80;;;;;;5033816;28;20034;-74
2022/06/24 04:45:22;;;;;;;3.58;2.40;;;20.70;96.60;;;;;;5033256;28;20037;-75
2022/06/24 04:47:49;;;;;;;3.85;2.78;;;20.80;96.60;;;;;;5034339;28;20049;-74
2022/06/24 04:50:15;;;;;;;3.72;2.83;;;20.80;96.50;;;;;;5032056;28;20095;-74
2022/06/24 04:52:41;;;;;;;4.45;3.17;;;20.90;96.50;;;;;;5034863;28;20022;-74
2022/06/24 04:55:07;;;;;;;4.03;2.95;;;20.80;96.50;;;;;;5029575;28;20110;-74
2022/06/24 04:57:34;;;;;;;3.75;2.67;;;20.90;96.40;;;;;;5034380;28;20037;-74
2022/06/24 05:00:01;;;;;;;2.92;2.63;;;21.00;96.50;;;;;;5030468;28;20035;-75
2022/06/24 05:02:29;;;;;;;4.93;2.72;;;21.00;96.50;;;;;;5033823;28;20020;-74
2022/06/24 05:04:55;;;;;;;3.53;2.60;;;21.00;96.30;;;;;;5027813;28;20033;-80
2022/06/24 05:07:20;;;;;;;4.43;2.80;;;21.10;96.40;;;;;;5029681;28;20030;-75
2022/06/24 05:09:47;;;;;;;5.22;3.20;;;21.10;96.30;;;;;;5034277;28;20404;-72
2022/06/24 05:12:13;;;;;;;5.70;3.00;;;21.10;96.30;;;;;;5031799;28;20022;-74
2022/06/24 05:14:39;;;;;;;5.32;2.70;;;21.20;96.10;;;;;;5024968;28;20110;-75
2022/06/24 05:17:04;;;;;;;5.75;3.00;;;21.20;96.20;;;;;;5031502;28;20039;-74
2022/06/24 05:19:30;;;;;;;3.53;2.67;;;21.20;96.30;;;;;;5026221;28;20037;-75
2022/06/24 05:21:56;;;;;;;3.25;2.83;;;21.20;96.30;;;;;;5022111;28;20382;-74
2022/06/24 05:24:22;;;;;;;4.45;2.80;;;21.30;96.00;;;;;;5026879;28;20038;-73
2022/06/24 05:26:48;;;;;;;4.28;2.80;;;21.30;95.80;;;;;;5016852;28;20032;-74
2022/06/24 05:29:14;;;;;;;5.47;2.92;;;21.30;96.00;;;;;;5024834;28;20033;-73
2022/06/24 05:31:40;;;;;;;4.63;2.95;;;21.30;96.00;;;;;;5029026;28;20084;-75
2022/06/24 05:34:09;;;;;;;4.20;3.25;;;21.40;95.80;;;;;;5028845;28;20117;-73
2022/06/24 05:36:35;;;;;;;4.55;2.63;;;21.50;95.90;;;;;;5022843;28;20060;-75
2022/06/24 05:39:02;;;;;;;4.85;2.92;;;21.50;95.80;;;;;;5011742;28;20113;-75
2022/06/24 05:41:28;;;;;;;3.97;3.00;;;21.50;95.80;;;;;;5012049;28;20560;-77
2022/06/24 05:43:55;;;;;;;4.85;3.17;;;21.60;95.80;;;;;;5017352;28;20040;-78
2022/06/24 05:46:23;;;;;;;6.25;3.25;;;21.70;95.70;;;;;;5005855;28;20151;-75
2022/06/24 05:48:49;;;;;;;5.32;3.40;;;21.70;95.50;;;;;;5007726;28;20029;-77
2022/06/24 05:51:16;;;;;;;4.03;3.13;;;21.80;95.10;;;;;;5009782;28;20053;-76
2022/06/24 05:56:28;;;;;;;7.90;3.60;;;22.00;94.60;;;;;;5005005;28;20132;-74
2022/06/24 05:58:54;;;;;;;4.97;3.05;;;21.90;94.30;;;;;;4999729;28;20029;-76
2022/06/24 06:01:21;;;;;;;5.00;3.20;;;22.00;94.30;;;;;;5000774;28;20100;-75
2022/06/24 06:03:47;;;;;;;6.78;3.80;;;22.00;94.10;;;;;;5032244;28;20397;-75
2022/06/24 06:06:13;;;;;;;4.80;2.92;;;22.10;94.00;;;;;;5031980;28;20041;-77
2022/06/24 06:08:40;;;;;;;4.28;3.10;;;22.10;94.10;;;;;;5021835;28;20033;-74
2022/06/24 06:11:20;;;;;;;6.15;3.03;;;22.20;94.30;;;;;;5034458;28;20065;-74
2022/06/24 06:13:47;;;;;;;4.40;3.08;;;22.30;94.10;;;;;;5033715;28;20515;-72
2022/06/24 06:16:13;;;;;;;4.38;3.30;;;22.40;93.90;;;;;;5027128;28;20051;-73
2022/06/24 06:18:43;;;;;;;4.50;2.92;;;22.40;93.60;;;;;;5023570;28;20369;-72
2022/06/24 06:21:10;;;;;;;4.50;3.00;;;22.40;93.70;;;;;;5015700;28;20172;-77
2022/06/24 06:23:38;;;;;;;5.50;3.50;;;22.50;93.50;;;;;;5026460;28;20518;-74
2022/06/24 06:26:06;;;;;;;8.30;3.15;;;22.50;93.60;;;;;;5034028;28;20040;-75
2022/06/24 06:28:33;;;;;;;4.63;3.38;;;22.60;93.70;;;;;;5024656;28;20029;-74
2022/06/24 06:30:59;;;;;;;6.78;3.53;;;22.60;93.50;;;;;;5028038;28;20083;-74
2022/06/24 06:33:26;;;;;;;7.30;3.28;;;22.80;93.60;;;;;;5027868;28;20040;-73
2022/06/24 06:35:52;;;;;;;6.70;4.25;;;22.80;93.00;;;;;;5030267;28;20079;-73
2022/06/24 06:38:17;;;;;;;7.45;3.65;;;22.80;92.70;;;;;;5027818;28;20037;-73
2022/06/24 06:40:43;;;;;;;9.00;3.60;;;22.80;93.00;;;;;;5027764;28;20034;-73
2022/06/24 06:43:09;;;;;;;6.32;3.60;;;22.70;92.80;;;;;;5033797;28;20037;-73
2022/06/24 06:45:36;;;;;;;6.70;3.42;;;22.70;92.60;;;;;;5036075;28;20029;-73
2022/06/24 06:48:03;;;;;;;5.40;3.95;;;22.60;92.70;;;;;;5022018;28;20033;-74
2022/06/24 06:50:28;;;;;;;4.35;3.50;;;22.60;92.80;;;;;;5029563;28;20033;-74
2022/06/24 06:52:54;;;;;;;5.75;3.70;;;22.60;92.70;;;;;;5035263;28;20028;-74
2022/06/24 06:55:20;;;;;;;6.85;3.63;;;22.70;92.80;;;;;;5030039;28;20033;-74
2022/06/24 06:57:46;;;;;;;7.75;4.40;;;22.70;92.80;;;;;;5034546;28;20021;-74
2022/06/24 07:00:13;;;;;;;7.82;4.00;;;22.80;93.00;;;;;;5031115;28;20021;-74
2022/06/24 07:02:39;;;;;;;7.28;3.72;;;22.80;92.70;;;;;;5028290;28;20044;-75
2022/06/24 07:05:06;;;;;;;5.97;3.55;;;22.80;92.90;;;;;;5033260;28;20041;-76
2022/06/24 07:07:33;;;;;;;7.53;3.38;;;22.80;93.00;;;;;;5032713;28;20460;-74
2022/06/24 07:09:59;;;;;;;19.77;4.40;;;23.00;92.90;;;;;;5031843;28;20029;-76
2022/06/24 07:12:26;;;;;;;5.63;4.22;;;23.00;92.80;;;;;;5038536;28;20643;-74
2022/06/24 07:14:52;;;;;;;5.95;4.13;;;23.10;92.60;;;;;;5033654;28;20084;-75
2022/06/24 07:17:18;;;;;;;9.77;4.07;;;23.10;92.60;;;;;;5031570;28;20038;-74
2022/06/24 07:19:46;;;;;;;5.88;3.80;;;23.20;92.70;;;;;;5032399;28;20017;-75
2022/06/24 07:22:13;;;;;;;6.60;3.45;;;23.30;92.60;;;;;;5035274;28;20025;-74
2022/06/24 07:24:39;;;;;;;4.65;3.55;;;23.40;92.50;;;;;;5034770;28;20502;-74
2022/06/24 07:27:06;;;;;;;9.80;3.83;;;23.50;92.40;;;;;;5034161;28;20066;-74
2022/06/24 07:29:35;;;;;;;4.25;3.72;;;23.50;92.70;;;;;;5039847;28;20048;-76
2022/06/24 07:32:06;;;;;;;7.55;3.65;;;23.60;92.50;;;;;;5040670;28;20029;-74
2022/06/24 07:34:32;;;;;;;7.28;4.25;;;23.60;92.60;;;;;;5038740;28;20037;-74
2022/06/24 07:36:59;;;;;;;8.30;4.45;;;23.60;92.60;;;;;;5041719;28;20021;-74
2022/06/24 07:39:25;;;;;;;8.73;4.35;;;23.70;92.90;;;;;;5037301;28;20071;-74
2022/06/24 07:41:51;;;;;;;6.32;4.30;;;23.70;92.40;;;;;;5037687;28;20057;-73
2022/06/24 07:44:17;;;;;;;6.88;3.90;;;23.80;92.00;;;;;;5041398;28;20025;-73
2022/06/24 07:46:43;;;;;;;6.03;3.83;;;23.90;92.00;;;;;;5037940;28;20776;-76
2022/06/24 07:49:08;;;;;;;8.40;4.18;;;23.90;92.30;;;;;;5033771;28;20394;-76
2022/06/24 07:51:36;;;;;;;8.52;4.00;;;24.00;92.10;;;;;;5037276;28;20047;-75
2022/06/24 07:54:01;;;;;;;8.57;4.28;;;24.00;91.60;;;;;;5040631;28;20025;-74
2022/06/24 07:59:12;;;;;;;6.28;3.92;;;24.20;91.90;;;;;;5038291;28;20025;-73
2022/06/24 08:01:38;;;;;;;6.82;4.18;;;24.10;91.90;;;;;;5041770;28;20029;-74
2022/06/24 08:04:07;;;;;;;5.10;3.75;;;24.20;91.70;;;;;;5036777;28;20042;-74
2022/06/24 08:06:38;;;;;;;7.95;4.07;;;24.20;91.70;;;;;;5037868;28;20034;-74
2022/06/24 08:09:04;;;;;;;7.95;4.10;;;24.30;91.80;;;;;;5021160;28;20521;-73
2022/06/24 08:11:30;;;;;;;5.25;3.83;;;24.30;91.40;;;;;;5040653;28;20501;-73
2022/06/24 08:13:56;;;;;;;6.88;3.85;;;24.40;91.60;;;;;;5042201;28;20104;-73
2022/06/24 08:16:22;;;;;;;5.25;3.83;;;24.60;91.50;;;;;;5039915;28;20033;-74
2022/06/24 08:18:49;;;;;;;9.73;4.45;;;24.70;91.60;;;;;;5037946;28;20047;-73
2022/06/24 08:21:15;;;;;;;6.78;4.13;;;24.70;90.80;;;;;;5040420;28;20025;-73
2022/06/24 08:23:41;;;;;;;4.32;3.72;;;24.80;90.90;;;;;;5038309;28;20485;-75
2022/06/24 08:26:06;;;;;;;7.30;4.10;;;24.80;90.60;;;;;;5034566;28;20535;-73
2022/06/24 08:28:32;;;;;;;5.93;4.10;;;24.90;90.80;;;;;;5039329;28;20069;-73
2022/06/24 08:30:58;;;;;;;5.82;4.03;;;24.90;90.20;;;;;;5042165;28;20069;-73
2022/06/24 08:33:23;;;;;;;7.35;4.28;;;25.00;90.30;;;;;;5038832;28;20511;-73
2022/06/24 08:35:50;;;;;;;5.30;3.83;;;25.10;90.40;;;;;;5038191;28;20152;-76
2022/06/24 08:38:18;;;;;;;6.25;4.43;;;25.10;90.40;;;;;;5041424;28;20213;-74
2022/06/24 08:40:48;;;;;;;7.90;3.85;;;25.20;90.30;;;;;;5039549;28;20044;-74
2022/06/24 08:43:14;;;;;;;6.45;4.25;;;25.30;89.20;;;;;;5038632;28;20040;-76
2022/06/24 08:45:40;;;;;;;7.18;3.70;;;25.40;89.60;;;;;;5039958;28;20581;-73
2022/06/24 08:48:14;;;;;;;5.55;3.97;;;25.40;89.70;;;;;;5040397;28;20029;-75
2022/06/24 08:50:40;;;;;;;7.60;4.22;;;25.50;88.20;;;;;;5021979;28;20026;-73
2022/06/24 08:53:09;;;;;;;6.60;4.43;;;25.60;88.10;;;;;;5039924;28;20456;-75
2022/06/24 08:55:41;;;;;;;9.40;4.22;;;25.70;87.10;;;;;;5037391;28;20036;-74
2022/06/24 08:58:15;;;;;;;8.38;3.97;;;25.80;85.80;;;;;;5040412;28;20524;-73
2022/06/24 09:00:41;;;;;;;4.85;3.58;;;25.90;85.10;;;;;;5041139;28;20394;-77
2022/06/24 09:03:08;;;;;;;5.90;3.90;;;26.00;84.30;;;;;;5021162;28;20034;-76
2022/06/24 09:05:34;;;;;;;4.13;3.72;;;26.10;83.80;;;;;;5037034;28;20029;-73
2022/06/24 09:08:06;;;;;;;5.00;4.50;;;26.20;83.60;;;;;;5036430;28;20055;-73
2022/06/24 09:10:32;;;;;;;9.25;4.18;;;26.30;82.20;;;;;;5039899;28;20041;-74
2022/06/24 09:12:58;;;;;;;7.82;3.90;;;26.40;82.60;;;;;;5039395;28;20497;-75
2022/06/24 09:15:24;;;;;;;9.05;4.60;;;26.50;81.30;;;;;;5041179;28;20025;-73
2022/06/24 09:17:50;;;;;;;4.45;3.78;;;26.50;80.80;;;;;;5036175;28;20523;-74
2022/06/24 09:20:21;;;;;;;5.53;3.90;;;26.60;81.40;;;;;;5039274;28;20022;-73
2022/06/24 09:22:47;;;;;;;;;;;26.70;80.70;;;;;;5037803;28;20029;-75
2022/06/24 09:25:13;;;;;;;4.97;4.25;;;26.70;81.10;;;;;;5040427;28;19909;-73
2022/06/24 09:27:46;;;;;;;7.78;4.47;;;26.80;80.20;;;;;;5035259;28;20029;-75
2022/06/24 09:30:16;;;;;;;5.05;4.13;;;26.90;80.70;;;;;;5038764;28;20397;-74
2022/06/24 09:32:52;;;;;;;5.18;3.92;;;27.10;80.40;;;;;;5038802;28;20048;-73
2022/06/24 09:35:18;;;;;;;6.13;3.95;;;27.10;79.20;;;;;;5042834;28;20024;-73
2022/06/24 09:37:49;;;;;;;5.03;3.75;;;27.20;79.10;;;;;;5036846;28;20029;-76
2022/06/24 09:40:28;;;;;;;6.85;4.13;;;27.30;80.00;;;;;;5037672;28;20108;-73
2022/06/24 09:42:57;;;;;;;4.43;3.72;;;27.20;79.20;;;;;;5043370;28;20021;-72
2022/06/24 09:45:24;;;;;;;7.40;4.47;;;27.30;78.10;;;;;;5040437;28;20028;-75
2022/06/24 09:47:51;;;;;;;5.60;4.13;;;27.30;77.90;;;;;;5036146;28;20108;-76
2022/06/24 09:50:18;;;;;;;6.93;4.07;;;27.30;78.00;;;;;;5038031;28;20039;-75
2022/06/24 09:52:45;;;;;;;7.43;4.43;;;27.40;78.00;;;;;;5038835;28;20021;-72
2022/06/24 09:55:10;;;;;;;5.10;4.32;;;27.40;77.90;;;;;;5036448;28;20508;-74
2022/06/24 09:57:38;;;;;;;5.57;4.35;;;27.50;77.80;;;;;;5036660;28;20100;-74
2022/06/24 10:02:50;;;;;;;5.43;4.40;;;27.60;76.50;;;;;;5034936;28;20025;-73
2022/06/24 10:05:18;;;;;;;7.47;5.00;;;27.70;76.90;;;;;;5033323;28;20113;-73
2022/06/24 10:07:47;;;;;;;7.60;4.57;;;27.80;76.30;;;;;;5039767;28;20025;-73
2022/06/24 10:10:17;;;;;;;9.88;4.60;;;27.90;76.70;;;;;;5039095;28;20104;-73
2022/06/24 10:12:54;;;;;;;4.78;4.30;;;28.00;76.90;;;;;;5041663;28;20033;-73
2022/06/24 10:15:21;;;;;;;6.47;4.30;;;28.10;76.50;;;;;;5036746;28;20025;-74
2022/06/24 10:17:48;;;;;;;5.28;4.50;;;28.10;75.90;;;;;;5034244;28;20029;-74
2022/06/24 10:20:16;;;;;;;4.43;4.03;;;28.20;75.70;;;;;;5032835;28;20029;-78
2022/06/24 10:22:44;;;;;;;8.13;4.85;;;28.30;76.40;;;;;;5041048;28;20489;-73
2022/06/24 10:25:10;;;;;;;6.68;5.00;;;28.40;75.40;;;;;;5034799;28;20437;-73
2022/06/24 10:28:05;;;;;;;6.13;4.65;;;28.40;75.10;;;;;;5035391;28;20149;-74
2022/06/24 10:30:40;;;;;;;5.13;4.60;;;28.50;75.20;;;;;;5037415;28;20141;-74
2022/06/24 10:33:19;;;;;;;6.15;4.90;;;28.60;74.80;;;;;;5040935;28;20094;-74
2022/06/24 10:36:03;;;;;;;5.20;4.70;;;28.60;74.80;;;;;;5036753;28;20033;-74
2022/06/24 10:38:40;;;;;;;5.43;4.93;;;28.60;73.80;;;;;;5021245;28;20025;-74
2022/06/24 10:41:08;;;;;;;6.95;4.78;;;28.60;75.10;;;;;;5033532;28;20025;-75
2022/06/24 10:43:34;;;;;;;7.18;4.68;;;28.70;75.10;;;;;;5035590;28;20450;-76
2022/06/24 10:46:12;;;;;;;5.35;4.50;;;28.80;72.80;;;;;;5019554;28;20080;-73
2022/06/24 10:48:44;;;;;;;6.72;4.75;;;28.90;73.10;;;;;;5018672;28;20033;-74
2022/06/24 10:51:15;;;;;;;6.18;4.75;;;28.90;72.90;;;;;;5043647;28;20033;-74
2022/06/24 10:54:06;;;;;;;8.52;7.68;;;29.00;72.60;;;;;;5038104;28;20064;-73
2022/06/24 10:56:42;;;;;;;;;;;29.00;72.30;;;;;;5033345;28;20104;-75
2022/06/24 10:59:08;;;;;;;5.68;4.60;;;29.20;73.10;;;;;;5032521;28;19913;-74
2022/06/24 11:01:39;;;;;;;6.82;4.82;;;29.20;72.10;;;;;;5023088;28;20585;-75
2022/06/24 11:04:09;;;;;;;5.97;4.75;;;29.30;71.80;;;;;;5013123;28;20078;-74
2022/06/24 11:06:35;;;;;;;5.60;5.00;;;29.40;71.90;;;;;;5046624;28;20104;-74
2022/06/24 11:09:06;;;;;;;5.07;4.57;;;29.50;70.70;;;;;;5032501;28;20033;-76
2022/06/24 11:11:33;;;;;;;7.40;4.97;;;29.50;72.00;;;;;;5030877;28;20132;-76
2022/06/24 11:13:59;;;;;;;12.43;4.88;;;29.60;70.00;;;;;;5035615;28;20685;-73
2022/06/24 11:16:28;;;;;;;8.05;4.45;;;29.60;69.70;;;;;;5032911;28;20033;-74
2022/06/24 11:18:56;;;;;;;5.45;4.55;;;29.80;69.30;;;;;;5030008;28;20042;-75
2022/06/24 11:21:22;;;;;;;8.40;4.30;;;30.00;68.60;;;;;;5028671;28;20112;-74
2022/06/24 11:23:52;;;;;;;6.05;5.05;;;30.10;68.60;;;;;;5030065;28;20131;-75
2022/06/24 11:26:21;;;;;;;6.85;4.72;;;30.00;68.10;;;;;;5031530;28;20030;-79
2022/06/24 11:28:52;;;;;;;10.35;4.97;;;30.30;67.50;;;;;;5033051;28;20041;-74
2022/06/24 11:31:18;;;;;;;6.60;5.38;;;30.40;66.70;;;;;;5033777;28;20026;-74
2022/06/24 11:33:45;;;;;;;6.68;4.82;;;30.30;67.10;;;;;;5021213;28;20410;-73
2022/06/24 11:36:12;;;;;;;8.02;4.75;;;30.00;67.50;;;;;;5032204;28;20032;-73
2022/06/24 11:38:51;;;;;;;5.15;4.60;;;31.30;66.70;;;;;;5028479;28;20033;-74
2022/06/24 11:41:25;;;;;;;8.35;4.70;;;32.90;62.70;;;;;;5027282;28;20025;-74
2022/06/24 11:43:51;;;;;;;6.53;5.03;;;32.70;61.90;;;;;;5024640;28;20035;-74
2022/06/24 11:46:18;;;;;;;12.75;9.48;;;32.20;62.10;;;;;;5022222;28;20034;-75
2022/06/24 11:48:43;;;;;;;14.68;9.50;;;32.70;62.50;;;;;;5022706;28;20033;-73
2022/06/24 11:51:20;;;;;;;10.57;5.13;;;34.80;59.30;;;;;;5027642;28;20111;-75
2022/06/24 11:53:57;;;;;;;12.70;10.98;;;35.60;57.60;;;;;;5029274;28;20509;-74
2022/06/24 11:56:27;;;;;;;10.30;5.47;;;35.90;55.40;;;;;;5030767;28;20025;-74
2022/06/24 11:58:53;;;;;;;;;;;36.20;52.50;;;;;;5030213;28;20108;-75
2022/06/24 12:01:20;;;;;;;6.45;4.68;;;35.20;51.50;;;;;;5026145;28;19909;-78
2022/06/24 12:03:49;;;;;;;9.35;4.80;;;33.90;54.80;;;;;;5023179;28;20669;-78
2022/06/24 12:06:19;;;;;;;6.75;4.80;;;32.80;55.40;;;;;;5026420;28;20614;-75
2022/06/24 12:08:46;;;;;;;7.78;4.40;;;32.00;56.50;;;;;;5030268;28;20036;-76
2022/06/24 12:11:17;;;;;;;7.57;5.20;;;31.30;57.50;;;;;;5031084;28;20094;-75
2022/06/24 12:14:02;;;;;;;7.53;4.60;;;30.70;58.30;;;;;;5022558;28;20018;-76
2022/06/24 12:16:48;;;;;;;7.72;5.03;;;30.00;59.70;;;;;;5035108;28;20449;-77
2022/06/24 12:19:15;;;;;;;11.15;5.38;;;29.40;62.70;;;;;;5029650;28;20036;-76
2022/06/24 12:21:41;;;;;;;17.10;5.80;;;29.10;64.50;;;;;;5032883;28;20029;-75
2022/06/24 12:24:24;;;;;;;30.08;5.75;;;28.70;64.60;;;;;;5033845;28;20074;-75
2022/06/24 12:26:57;;;;;;;15.52;6.07;;;28.40;65.90;;;;;;5012049;28;20213;-77
2022/06/24 12:29:33;;;;;;;10.60;5.00;;;28.20;66.70;;;;;;5040862;28;20029;-76
2022/06/24 12:32:02;;;;;;;10.00;5.68;;;28.00;67.70;;;;;;5033130;28;20033;-75
2022/06/24 12:34:32;;;;;;;6.13;5.15;;;27.80;68.50;;;;;;5028789;28;20516;-75
2022/06/24 12:36:59;;;;;;;8.23;6.25;;;27.40;70.00;;;;;;5030479;28;20504;-74
2022/06/24 12:39:34;;;;;;;26.90;9.02;;;26.80;73.80;;;;;;5030418;28;20026;-75
2022/06/24 12:42:01;;;;;;;19.55;7.93;;;26.40;99.90;;;;;;5015086;28;20033;-76
2022/06/24 12:44:47;;;;;;;15.05;8.63;;;25.20;99.90;;;;;;5038769;28;20047;-76
2022/06/24 12:53:07;;;;;;;11.55;9.00;;;22.40;99.90;;;;;;5039630;28;20103;-75
2022/06/24 12:55:33;;;;;;;11.63;10.13;;;22.10;99.90;;;;;;5036525;28;20029;-74
2022/06/24 12:58:00;;;;;;;13.40;11.45;;;21.90;99.90;;;;;;5029618;28;20034;-74
2022/06/24 13:00:26;;;;;;;14.75;11.93;;;21.80;99.90;;;;;;5035272;28;20033;-77
2022/06/24 13:02:54;;;;;;;13.10;11.75;;;21.70;99.90;;;;;;5020921;28;20022;-75
2022/06/24 13:05:22;;;;;;;16.52;11.85;;;21.70;99.90;;;;;;5034260;28;20456;-76
2022/06/24 13:07:49;;;;;;;13.38;11.45;;;21.60;99.90;;;;;;5033343;28;20485;-74
2022/06/24 13:10:15;;;;;;;13.07;11.65;;;21.70;99.90;;;;;;5032470;28;20124;-75